createdAt,value
2022-10-23T00:00:17.478Z,11.05
2022-10-23T00:01:17.411Z,11.18
2022-10-23T00:02:17.446Z,11.09
2022-10-23T00:03:17.400Z,11.05
2022-10-23T00:04:17.383Z,11.04
2022-10-23T00:05:17.450Z,11.04
2022-10-23T00:06:17.418Z,10.97
2022-10-23T00:07:17.403Z,11.08
2022-10-23T00:08:17.377Z,11.05
2022-10-23T00:09:17.348Z,11.09
2022-10-23T00:10:17.348Z,10.97
2022-10-23T00:11:17.342Z,11.03
2022-10-23T00:12:17.328Z,10.97
2022-10-23T00:13:17.342Z,11.05
2022-10-23T00:14:17.316Z,10.87
2022-10-23T00:15:17.307Z,10.95
2022-10-23T00:16:17.308Z,10.87
2022-10-23T00:17:17.613Z,10.97
2022-10-23T00:18:17.289Z,10.95
2022-10-23T00:19:17.298Z,10.90
2022-10-23T00:20:17.272Z,10.87
2022-10-23T00:21:17.274Z,10.86
2022-10-23T00:22:17.297Z,10.95
2022-10-23T00:23:17.269Z,10.90
2022-10-23T00:24:17.249Z,10.95
2022-10-23T00:25:17.248Z,10.87
2022-10-23T00:26:17.234Z,10.91
2022-10-23T00:27:17.231Z,10.85
2022-10-23T00:28:17.227Z,10.83
2022-10-23T00:29:17.210Z,10.80
2022-10-23T00:30:17.221Z,10.87
2022-10-23T00:31:17.204Z,10.75
2022-10-23T00:32:17.191Z,10.82
2022-10-23T00:33:17.187Z,10.83
2022-10-23T00:34:17.212Z,10.86
2022-10-23T00:35:17.175Z,10.90
2022-10-23T00:36:17.170Z,10.86
2022-10-23T00:37:17.153Z,10.83
2022-10-23T00:38:17.177Z,10.85
2022-10-23T00:39:17.148Z,10.93
2022-10-23T00:40:17.129Z,10.94
2022-10-23T00:41:17.147Z,10.94
2022-10-23T00:42:17.120Z,10.90
2022-10-23T00:43:17.112Z,10.91
2022-10-23T00:44:17.115Z,10.82
2022-10-23T00:45:17.124Z,10.76
2022-10-23T00:46:17.863Z,10.76
2022-10-23T00:47:17.096Z,10.85
2022-10-23T00:48:17.087Z,10.90
2022-10-23T00:49:17.074Z,10.76
2022-10-23T00:50:17.096Z,10.76
2022-10-23T00:51:17.063Z,10.78
2022-10-23T00:52:17.049Z,10.75
2022-10-23T00:53:17.047Z,10.73
2022-10-23T00:54:24.135Z,10.72
2022-10-23T00:55:18.027Z,10.80
2022-10-23T00:56:17.024Z,10.75
2022-10-23T00:57:17.559Z,10.72
2022-10-23T00:58:17.009Z,10.75
2022-10-23T00:59:17.006Z,10.78
2022-10-23T01:00:16.990Z,10.70
2022-10-23T01:01:17.076Z,10.67
2022-10-23T01:02:17.231Z,10.65
2022-10-23T01:03:16.979Z,10.80
2022-10-23T01:04:16.965Z,10.64
2022-10-23T01:05:16.966Z,10.68
2022-10-23T01:06:16.950Z,10.64
2022-10-23T01:07:16.945Z,10.70
2022-10-23T01:08:16.947Z,10.65
2022-10-23T01:09:16.934Z,10.62
2022-10-23T01:10:16.959Z,10.60
2022-10-23T01:11:16.927Z,10.64
2022-10-23T01:12:16.909Z,10.62
2022-10-23T01:13:16.929Z,10.52
2022-10-23T01:14:16.912Z,10.48
2022-10-23T01:15:16.890Z,10.61
2022-10-23T01:16:16.886Z,10.54
2022-10-23T01:17:16.872Z,10.55
2022-10-23T01:18:16.871Z,10.46
2022-10-23T01:19:16.862Z,10.49
2022-10-23T01:20:16.848Z,10.43
2022-10-23T01:21:16.860Z,10.39
2022-10-23T01:22:16.942Z,10.58
2022-10-23T01:23:16.836Z,10.48
2022-10-23T01:24:16.829Z,10.48
2022-10-23T01:25:16.813Z,10.43
2022-10-23T01:26:17.337Z,10.43
2022-10-23T01:27:16.805Z,10.48
2022-10-23T01:28:16.792Z,10.49
2022-10-23T01:29:16.794Z,10.54
2022-10-23T01:30:16.779Z,10.39
2022-10-23T01:31:16.771Z,10.34
2022-10-23T01:32:16.775Z,10.38
2022-10-23T01:33:16.770Z,10.41
2022-10-23T01:34:16.751Z,10.39
2022-10-23T01:35:16.743Z,10.39
2022-10-23T01:36:16.748Z,10.38
2022-10-23T01:37:16.746Z,10.26
2022-10-23T01:38:16.730Z,10.26
2022-10-23T01:39:16.720Z,10.21
2022-10-23T01:40:16.710Z,10.28
2022-10-23T01:41:16.725Z,10.24
2022-10-23T01:42:16.741Z,10.30
2022-10-23T01:43:16.698Z,10.30
2022-10-23T01:44:16.686Z,10.24
2022-10-23T01:45:16.668Z,10.24
2022-10-23T01:46:16.663Z,10.28
2022-10-23T01:47:16.718Z,10.30
2022-10-23T01:48:16.697Z,10.24
2022-10-23T01:49:16.693Z,10.24
2022-10-23T01:50:16.638Z,10.27
2022-10-23T01:51:16.626Z,10.21
2022-10-23T01:52:16.681Z,10.30
2022-10-23T01:53:16.613Z,10.24
2022-10-23T01:54:16.603Z,10.18
2022-10-23T01:55:16.607Z,10.16
2022-10-23T01:56:16.590Z,10.12
2022-10-23T01:57:16.590Z,10.14
2022-10-23T01:58:16.612Z,10.05
2022-10-23T01:59:16.576Z,10.08
2022-10-23T02:00:16.568Z,10.06
2022-10-23T02:01:16.704Z,9.90
2022-10-23T02:02:16.714Z,9.94
2022-10-23T02:03:16.556Z,9.90
2022-10-23T02:04:16.543Z,9.93
2022-10-23T02:05:16.533Z,9.83
2022-10-23T02:06:16.521Z,9.90
2022-10-23T02:07:16.525Z,9.90
2022-10-23T02:08:16.506Z,9.83
2022-10-23T02:09:16.512Z,9.80
2022-10-23T02:10:16.499Z,9.91
2022-10-23T02:11:16.488Z,9.85
2022-10-23T02:12:16.588Z,9.91
2022-10-23T02:13:16.472Z,9.94
2022-10-23T02:14:16.488Z,9.91
2022-10-23T02:15:16.461Z,9.90
2022-10-23T02:16:16.452Z,9.84
2022-10-23T02:17:16.448Z,9.85
2022-10-23T02:18:23.519Z,9.85
2022-10-23T02:19:16.580Z,9.80
2022-10-23T02:20:16.416Z,9.87
2022-10-23T02:21:16.421Z,9.96
2022-10-23T02:22:16.404Z,9.81
2022-10-23T02:23:16.405Z,9.83
2022-10-23T02:24:16.423Z,9.87
2022-10-23T02:25:16.389Z,9.83
2022-10-23T02:26:16.395Z,9.85
2022-10-23T02:27:16.370Z,9.81
2022-10-23T02:28:16.361Z,9.85
2022-10-23T02:29:17.110Z,9.73
2022-10-23T02:30:16.387Z,9.69
2022-10-23T02:31:16.351Z,9.72
2022-10-23T02:32:16.341Z,9.63
2022-10-23T02:33:16.327Z,9.62
2022-10-23T02:34:17.495Z,9.69
2022-10-23T02:35:16.813Z,9.54
2022-10-23T02:36:16.316Z,9.60
2022-10-23T02:37:16.320Z,9.55
2022-10-23T02:38:16.404Z,9.67
2022-10-23T02:39:16.330Z,9.59
2022-10-23T02:40:16.299Z,9.63
2022-10-23T02:41:16.323Z,9.60
2022-10-23T02:42:16.264Z,9.42
2022-10-23T02:43:16.270Z,9.51
2022-10-23T02:44:16.259Z,9.57
2022-10-23T02:45:16.243Z,9.55
2022-10-23T02:46:16.266Z,9.65
2022-10-23T02:47:16.244Z,9.65
2022-10-23T02:48:16.223Z,9.67
2022-10-23T02:49:16.229Z,9.65
2022-10-23T02:50:16.220Z,9.70
2022-10-23T02:51:16.356Z,9.73
2022-10-23T02:52:16.187Z,9.75
2022-10-23T02:53:16.195Z,9.70
2022-10-23T02:54:16.178Z,9.66
2022-10-23T02:55:16.176Z,9.77
2022-10-23T02:56:16.596Z,9.83
2022-10-23T02:57:16.160Z,9.73
2022-10-23T02:58:16.148Z,9.69
2022-10-23T02:59:16.143Z,9.73
2022-10-23T03:00:16.133Z,9.80
2022-10-23T03:01:16.756Z,9.67
2022-10-23T03:02:16.223Z,9.78
2022-10-23T03:03:16.122Z,9.78
2022-10-23T03:04:16.113Z,9.77
2022-10-23T03:05:16.109Z,9.80
2022-10-23T03:06:16.098Z,9.69
2022-10-23T03:07:16.125Z,9.78
2022-10-23T03:08:16.085Z,9.73
2022-10-23T03:09:16.069Z,9.75
2022-10-23T03:10:16.071Z,9.62
2022-10-23T03:11:16.065Z,9.62
2022-10-23T03:12:16.583Z,9.63
2022-10-23T03:13:16.049Z,9.66
2022-10-23T03:14:16.032Z,9.69
2022-10-23T03:15:16.037Z,9.70
2022-10-23T03:16:16.028Z,9.75
2022-10-23T03:17:16.028Z,9.81
2022-10-23T03:18:16.039Z,9.81
2022-10-23T03:19:15.999Z,9.83
2022-10-23T03:20:15.989Z,9.78
2022-10-23T03:21:16.004Z,9.80
2022-10-23T03:22:15.985Z,9.83
2022-10-23T03:23:15.995Z,9.81
2022-10-23T03:24:15.969Z,9.87
2022-10-23T03:25:15.968Z,9.85
2022-10-23T03:26:15.955Z,9.81
2022-10-23T03:27:15.974Z,9.85
2022-10-23T03:28:15.958Z,9.85
2022-10-23T03:29:15.935Z,9.87
2022-10-23T03:30:15.938Z,9.80
2022-10-23T03:31:15.965Z,9.87
2022-10-23T03:32:15.905Z,9.84
2022-10-23T03:33:15.908Z,9.88
2022-10-23T03:34:15.932Z,9.84
2022-10-23T03:35:15.903Z,9.94
2022-10-23T03:36:15.882Z,9.93
2022-10-23T03:37:15.905Z,9.90
2022-10-23T03:38:15.888Z,10.02
2022-10-23T03:39:15.939Z,10.01
2022-10-23T03:40:15.876Z,10.06
2022-10-23T03:41:15.866Z,10.02
2022-10-23T03:42:15.838Z,10.08
2022-10-23T03:43:15.837Z,10.06
2022-10-23T03:44:15.826Z,10.09
2022-10-23T03:45:15.817Z,10.08
2022-10-23T03:46:15.828Z,10.02
2022-10-23T03:47:15.811Z,10.02
2022-10-23T03:48:15.806Z,10.06
2022-10-23T03:49:15.789Z,9.99
2022-10-23T03:50:15.798Z,10.06
2022-10-23T03:51:15.796Z,10.02
2022-10-23T03:52:15.827Z,9.99
2022-10-23T03:53:15.775Z,10.09
2022-10-23T03:54:15.874Z,9.91
2022-10-23T03:55:15.742Z,10.02
2022-10-23T03:56:15.943Z,9.99
2022-10-23T03:57:15.734Z,10.08
2022-10-23T03:58:15.813Z,10.03
2022-10-23T03:59:15.742Z,10.01
2022-10-23T04:00:15.719Z,10.03
2022-10-23T04:01:15.768Z,10.03
2022-10-23T04:02:15.722Z,10.03
2022-10-23T04:03:15.684Z,10.10
2022-10-23T04:04:15.692Z,10.02
2022-10-23T04:05:15.671Z,10.06
2022-10-23T04:06:15.699Z,10.14
2022-10-23T04:07:15.655Z,10.02
2022-10-23T04:08:19.189Z,10.02
2022-10-23T04:09:15.704Z,9.99
2022-10-23T04:10:15.635Z,10.01
2022-10-23T04:11:15.639Z,9.99
2022-10-23T04:12:15.627Z,10.08
2022-10-23T04:13:15.623Z,10.08
2022-10-23T04:14:15.612Z,10.02
2022-10-23T04:15:15.602Z,10.12
2022-10-23T04:16:15.609Z,10.14
2022-10-23T04:17:15.615Z,10.24
2022-10-23T04:18:15.599Z,10.17
2022-10-23T04:19:15.567Z,10.18
2022-10-23T04:20:15.561Z,10.16
2022-10-23T04:21:15.564Z,10.18
2022-10-23T04:22:15.565Z,10.10
2022-10-23T04:23:15.968Z,10.31
2022-10-23T04:24:15.534Z,10.26
2022-10-23T04:25:15.527Z,10.24
2022-10-23T04:26:15.525Z,10.31
2022-10-23T04:27:15.589Z,10.17
2022-10-23T04:28:15.509Z,10.18
2022-10-23T04:29:15.501Z,10.16
2022-10-23T04:30:15.484Z,10.21
2022-10-23T04:31:15.488Z,10.10
2022-10-23T04:32:15.482Z,10.12
2022-10-23T04:33:15.490Z,10.17
2022-10-23T04:34:15.515Z,10.16
2022-10-23T04:35:15.461Z,10.10
2022-10-23T04:36:15.452Z,10.09
2022-10-23T04:37:15.449Z,10.06
2022-10-23T04:38:15.474Z,10.10
2022-10-23T04:39:15.918Z,10.16
2022-10-23T04:40:15.427Z,10.03
2022-10-23T04:41:15.414Z,10.14
2022-10-23T04:42:15.503Z,10.17
2022-10-23T04:43:15.401Z,10.14
2022-10-23T04:44:15.403Z,10.12
2022-10-23T04:45:15.405Z,10.14
2022-10-23T04:46:15.411Z,10.14
2022-10-23T04:47:15.405Z,10.16
2022-10-23T04:48:15.361Z,10.17
2022-10-23T04:49:15.366Z,10.21
2022-10-23T04:50:15.349Z,10.21
2022-10-23T04:51:15.339Z,10.21
2022-10-23T04:52:15.386Z,10.26
2022-10-23T04:53:15.322Z,10.17
2022-10-23T04:54:15.345Z,10.02
2022-10-23T04:55:15.309Z,9.93
2022-10-23T04:56:15.298Z,9.99
2022-10-23T04:57:15.313Z,9.85
2022-10-23T04:58:15.307Z,9.93
2022-10-23T04:59:15.279Z,9.96
2022-10-23T05:00:15.284Z,9.88
2022-10-23T05:01:15.415Z,9.94
2022-10-23T05:02:15.255Z,10.02
2022-10-23T05:03:15.283Z,9.90
2022-10-23T05:04:15.247Z,9.88
2022-10-23T05:05:15.243Z,9.94
2022-10-23T05:06:15.248Z,9.94
2022-10-23T05:07:15.297Z,10.06
2022-10-23T05:08:17.931Z,9.99
2022-10-23T05:09:15.214Z,9.96
2022-10-23T05:10:15.225Z,10.01
2022-10-23T05:11:15.211Z,10.01
2022-10-23T05:12:15.206Z,10.06
2022-10-23T05:13:15.185Z,10.02
2022-10-23T05:14:18.096Z,10.02
2022-10-23T05:15:15.179Z,10.03
2022-10-23T05:16:15.184Z,10.09
2022-10-23T05:17:15.152Z,10.14
2022-10-23T05:18:15.149Z,10.03
2022-10-23T05:19:15.138Z,10.06
2022-10-23T05:20:15.138Z,10.09
2022-10-23T05:21:15.137Z,9.78
2022-10-23T05:22:15.133Z,9.80
2022-10-23T05:23:15.118Z,9.84
2022-10-23T05:24:15.105Z,9.85
2022-10-23T05:25:15.099Z,9.80
2022-10-23T05:26:15.134Z,9.84
2022-10-23T05:27:15.076Z,9.85
2022-10-23T05:28:15.292Z,9.88
2022-10-23T05:29:15.073Z,9.90
2022-10-23T05:30:15.063Z,9.87
2022-10-23T05:31:15.055Z,9.90
2022-10-23T05:32:15.105Z,9.94
2022-10-23T05:33:15.044Z,9.94
2022-10-23T05:34:15.842Z,9.99
2022-10-23T05:35:15.032Z,9.99
2022-10-23T05:36:15.032Z,9.98
2022-10-23T05:37:15.012Z,10.05
2022-10-23T05:38:15.003Z,10.08
2022-10-23T05:39:14.994Z,10.09
2022-10-23T05:40:14.988Z,10.09
2022-10-23T05:41:14.986Z,10.10
2022-10-23T05:42:15.004Z,10.05
2022-10-23T05:43:15.013Z,10.06
2022-10-23T05:44:14.971Z,10.12
2022-10-23T05:45:14.963Z,10.05
2022-10-23T05:46:14.956Z,10.05
2022-10-23T05:47:14.939Z,10.09
2022-10-23T05:48:22.863Z,10.14
2022-10-23T05:49:15.959Z,10.10
2022-10-23T05:50:15.197Z,10.16
2022-10-23T05:51:14.906Z,10.16
2022-10-23T05:52:14.932Z,10.09
2022-10-23T05:53:14.891Z,10.01
2022-10-23T05:54:14.884Z,9.88
2022-10-23T05:55:14.882Z,9.87
2022-10-23T05:56:14.910Z,9.91
2022-10-23T05:57:14.961Z,9.93
2022-10-23T05:58:14.878Z,9.91
2022-10-23T05:59:17.896Z,9.88
2022-10-23T06:00:15.844Z,9.93
2022-10-23T06:01:14.900Z,9.91
2022-10-23T06:02:14.898Z,9.99
2022-10-23T06:03:14.816Z,10.06
2022-10-23T06:04:14.812Z,10.09
2022-10-23T06:05:14.801Z,10.09
2022-10-23T06:06:14.815Z,10.03
2022-10-23T06:07:14.811Z,9.88
2022-10-23T06:08:14.782Z,9.96
2022-10-23T06:09:14.779Z,9.83
2022-10-23T06:10:14.774Z,9.84
2022-10-23T06:11:14.779Z,9.81
2022-10-23T06:12:14.760Z,9.83
2022-10-23T06:13:14.911Z,9.87
2022-10-23T06:14:14.765Z,9.96
2022-10-23T06:15:14.772Z,9.90
2022-10-23T06:16:14.983Z,9.80
2022-10-23T06:17:14.715Z,9.87
2022-10-23T06:18:14.710Z,9.80
2022-10-23T06:19:14.725Z,9.85
2022-10-23T06:20:14.698Z,9.80
2022-10-23T06:21:14.701Z,9.78
2022-10-23T06:22:14.731Z,9.85
2022-10-23T06:23:14.678Z,9.80
2022-10-23T06:24:14.676Z,9.81
2022-10-23T06:25:14.664Z,9.80
2022-10-23T06:26:14.654Z,9.77
2022-10-23T06:27:14.676Z,9.72
2022-10-23T06:28:17.068Z,9.66
2022-10-23T06:29:15.645Z,9.78
2022-10-23T06:30:14.643Z,9.80
2022-10-23T06:31:14.628Z,9.77
2022-10-23T06:32:14.614Z,9.73
2022-10-23T06:33:14.606Z,9.78
2022-10-23T06:34:14.616Z,9.60
2022-10-23T06:35:14.591Z,9.59
2022-10-23T06:36:14.590Z,9.55
2022-10-23T06:37:14.574Z,9.57
2022-10-23T06:38:14.559Z,9.51
2022-10-23T06:39:15.174Z,9.59
2022-10-23T06:40:14.557Z,9.57
2022-10-23T06:41:14.979Z,9.55
2022-10-23T06:42:14.538Z,9.51
2022-10-23T06:43:14.535Z,9.69
2022-10-23T06:44:14.532Z,9.57
2022-10-23T06:45:14.516Z,9.55
2022-10-23T06:46:14.525Z,9.55
2022-10-23T06:47:14.639Z,9.63
2022-10-23T06:48:14.505Z,9.66
2022-10-23T06:49:14.609Z,9.62
2022-10-23T06:50:15.567Z,9.52
2022-10-23T06:51:14.475Z,9.63
2022-10-23T06:52:41.751Z,9.65
2022-10-23T06:53:15.459Z,9.69
2022-10-23T06:54:14.460Z,9.78
2022-10-23T06:55:14.460Z,9.85
2022-10-23T06:56:14.437Z,9.85
2022-10-23T06:57:14.446Z,10.08
2022-10-23T06:58:14.429Z,9.96
2022-10-23T06:59:14.417Z,9.91
2022-10-23T07:00:14.429Z,9.94
2022-10-23T07:01:14.702Z,9.99
2022-10-23T07:02:14.430Z,10.02
2022-10-23T07:03:14.396Z,9.98
2022-10-23T07:04:14.508Z,10.12
2022-10-23T07:05:14.519Z,10.14
2022-10-23T07:06:14.484Z,10.12
2022-10-23T07:07:14.374Z,10.18
2022-10-23T07:08:14.370Z,10.21
2022-10-23T07:09:14.360Z,10.26
2022-10-23T07:10:14.908Z,10.23
2022-10-23T07:11:15.223Z,10.34
2022-10-23T07:12:14.349Z,10.36
2022-10-23T07:13:14.330Z,10.42
2022-10-23T07:14:14.332Z,10.46
2022-10-23T07:15:14.323Z,10.46
2022-10-23T07:16:14.333Z,10.49
2022-10-23T07:17:14.318Z,10.39
2022-10-23T07:18:14.382Z,10.38
2022-10-23T07:19:14.284Z,10.45
2022-10-23T07:20:14.285Z,10.43
2022-10-23T07:21:14.282Z,10.54
2022-10-23T07:22:15.926Z,10.68
2022-10-23T07:23:14.266Z,10.70
2022-10-23T07:24:14.278Z,10.68
2022-10-23T07:25:14.261Z,10.76
2022-10-23T07:26:14.243Z,10.93
2022-10-23T07:27:14.536Z,11.00
2022-10-23T07:28:14.233Z,11.13
2022-10-23T07:29:14.222Z,11.09
2022-10-23T07:30:14.209Z,11.12
2022-10-23T07:31:14.203Z,11.22
2022-10-23T07:32:14.200Z,11.33
2022-10-23T07:33:14.189Z,11.37
2022-10-23T07:34:14.204Z,11.37
2022-10-23T07:36:14.170Z,11.48
2022-10-23T07:37:14.165Z,11.51
2022-10-23T07:38:14.160Z,11.52
2022-10-23T07:39:14.177Z,11.66
2022-10-23T07:40:14.152Z,11.71
2022-10-23T07:41:14.125Z,11.85
2022-10-23T07:42:14.125Z,11.95
2022-10-23T07:43:14.117Z,12.15
2022-10-23T07:44:14.109Z,12.33
2022-10-23T07:45:14.110Z,12.50
2022-10-23T07:46:14.091Z,12.72
2022-10-23T07:47:14.093Z,12.80
2022-10-23T07:48:14.089Z,12.95
2022-10-23T07:49:14.077Z,12.90
2022-10-23T07:50:14.103Z,12.96
2022-10-23T07:51:14.071Z,13.14
2022-10-23T07:52:14.065Z,13.21
2022-10-23T07:53:14.072Z,13.53
2022-10-23T07:54:14.047Z,13.61
2022-10-23T07:55:14.040Z,13.72
2022-10-23T07:56:14.027Z,13.76
2022-10-23T07:57:14.031Z,14.01
2022-10-23T07:58:14.028Z,14.22
2022-10-23T07:59:14.010Z,14.33
2022-10-23T08:00:14.070Z,14.49
2022-10-23T08:01:14.042Z,14.38
2022-10-23T08:02:14.113Z,14.34
2022-10-23T08:03:13.986Z,14.03
2022-10-23T08:04:13.970Z,13.93
2022-10-23T08:05:14.038Z,13.79
2022-10-23T08:06:13.988Z,13.82
2022-10-23T08:07:13.990Z,13.97
2022-10-23T08:08:14.025Z,13.97
2022-10-23T08:09:13.981Z,14.05
2022-10-23T08:10:13.923Z,14.16
2022-10-23T08:11:13.931Z,14.26
2022-10-23T08:12:13.917Z,14.38
2022-10-23T08:13:13.922Z,14.64
2022-10-23T08:14:13.912Z,14.66
2022-10-23T08:15:13.948Z,14.67
2022-10-23T08:16:13.883Z,14.78
2022-10-23T08:17:13.934Z,14.87
2022-10-23T08:18:13.959Z,14.93
2022-10-23T08:19:13.873Z,14.95
2022-10-23T08:20:13.869Z,14.97
2022-10-23T08:21:13.851Z,15.17
2022-10-23T08:22:13.885Z,15.08
2022-10-23T08:23:13.835Z,14.96
2022-10-23T08:24:13.835Z,15.05
2022-10-23T08:25:13.944Z,15.22
2022-10-23T08:26:13.820Z,15.25
2022-10-23T08:27:13.801Z,15.29
2022-10-23T08:28:13.808Z,15.33
2022-10-23T08:29:13.789Z,15.44
2022-10-23T08:30:13.783Z,15.48
2022-10-23T08:31:13.785Z,15.60
2022-10-23T08:32:13.766Z,15.63
2022-10-23T08:33:13.828Z,15.65
2022-10-23T08:34:13.856Z,15.83
2022-10-23T08:35:13.744Z,15.83
2022-10-23T08:36:13.745Z,15.99
2022-10-23T08:37:13.728Z,16.21
2022-10-23T08:38:13.753Z,16.36
2022-10-23T08:39:13.724Z,16.32
2022-10-23T08:40:13.713Z,16.54
2022-10-23T08:41:13.745Z,16.62
2022-10-23T08:42:13.886Z,16.72
2022-10-23T08:43:13.873Z,16.91
2022-10-23T08:44:13.697Z,17.16
2022-10-23T08:45:13.673Z,17.27
2022-10-23T08:46:13.669Z,17.54
2022-10-23T08:47:13.666Z,17.54
2022-10-23T08:48:13.654Z,17.71
2022-10-23T08:49:13.672Z,17.84
2022-10-23T08:50:13.641Z,17.86
2022-10-23T08:51:13.623Z,17.71
2022-10-23T08:52:14.325Z,17.59
2022-10-23T08:53:13.653Z,17.72
2022-10-23T08:54:21.710Z,17.84
2022-10-23T08:55:13.596Z,18.13
2022-10-23T08:56:13.592Z,18.27
2022-10-23T08:57:13.587Z,18.15
2022-10-23T08:58:13.575Z,18.08
2022-10-23T08:59:13.572Z,18.21
2022-10-23T09:00:13.576Z,18.52
2022-10-23T09:01:13.671Z,18.57
2022-10-23T09:02:13.611Z,18.96
2022-10-23T09:03:14.091Z,19.15
2022-10-23T09:04:13.549Z,19.12
2022-10-23T09:05:13.533Z,19.45
2022-10-23T09:06:13.519Z,19.78
2022-10-23T09:07:13.550Z,20.07
2022-10-23T09:08:13.519Z,20.18
2022-10-23T09:09:13.512Z,20.33
2022-10-23T09:10:13.515Z,20.74
2022-10-23T09:11:13.487Z,21.10
2022-10-23T09:12:13.487Z,21.47
2022-10-23T09:13:13.477Z,21.71
2022-10-23T09:14:13.477Z,22.06
2022-10-23T09:15:13.864Z,22.25
2022-10-23T09:16:13.747Z,22.58
2022-10-23T09:18:13.430Z,23.22
2022-10-23T09:19:13.436Z,23.26
2022-10-23T09:20:13.505Z,23.25
2022-10-23T09:21:13.436Z,23.22
2022-10-23T09:22:14.932Z,23.52
2022-10-23T09:23:13.428Z,23.60
2022-10-23T09:24:13.384Z,23.70
2022-10-23T09:25:13.395Z,23.91
2022-10-23T09:26:13.410Z,23.70
2022-10-23T09:27:13.405Z,23.79
2022-10-23T09:28:13.366Z,23.98
2022-10-23T09:29:13.377Z,23.92
2022-10-23T09:30:13.425Z,23.78
2022-10-23T09:31:13.345Z,23.42
2022-10-23T09:32:13.390Z,23.21
2022-10-23T09:33:13.325Z,22.62
2022-10-23T09:34:13.326Z,22.00
2022-10-23T09:35:13.350Z,21.47
2022-10-23T09:36:14.392Z,20.85
2022-10-23T09:37:13.305Z,20.64
2022-10-23T09:38:13.301Z,20.64
2022-10-23T09:39:13.403Z,20.52
2022-10-23T09:40:13.645Z,20.53
2022-10-23T09:41:13.282Z,20.25
2022-10-23T09:42:13.290Z,20.00
2022-10-23T09:43:13.272Z,20.02
2022-10-23T09:44:13.284Z,19.52
2022-10-23T09:45:13.280Z,19.15
2022-10-23T09:46:13.248Z,18.66
2022-10-23T09:47:13.358Z,18.51
2022-10-23T09:48:13.227Z,18.43
2022-10-23T09:49:13.243Z,18.24
2022-10-23T09:50:13.210Z,18.13
2022-10-23T09:51:13.594Z,18.09
2022-10-23T09:52:13.213Z,17.91
2022-10-23T09:53:13.409Z,17.93
2022-10-23T09:54:13.236Z,17.90
2022-10-23T09:55:13.184Z,17.88
2022-10-23T09:56:13.203Z,17.87
2022-10-23T09:57:13.338Z,17.83
2022-10-23T09:58:13.198Z,17.72
2022-10-23T09:59:13.178Z,17.81
2022-10-23T10:00:13.170Z,17.88
2022-10-23T10:01:13.375Z,17.84
2022-10-23T10:02:13.263Z,17.87
2022-10-23T10:03:13.162Z,17.96
2022-10-23T10:04:13.135Z,17.93
2022-10-23T10:05:13.187Z,17.81
2022-10-23T10:06:13.146Z,17.93
2022-10-23T10:07:13.105Z,17.84
2022-10-23T10:08:13.152Z,17.99
2022-10-23T10:09:13.103Z,18.01
2022-10-23T10:10:13.088Z,18.01
2022-10-23T10:11:13.090Z,18.08
2022-10-23T10:12:13.094Z,18.01
2022-10-23T10:13:15.052Z,18.05
2022-10-23T10:14:13.075Z,18.18
2022-10-23T10:15:13.053Z,18.49
2022-10-23T10:16:13.059Z,18.63
2022-10-23T10:17:13.086Z,18.57
2022-10-23T10:18:13.043Z,18.60
2022-10-23T10:19:13.411Z,18.49
2022-10-23T10:20:13.065Z,18.66
2022-10-23T10:21:13.032Z,18.82
2022-10-23T10:22:13.052Z,18.76
2022-10-23T10:23:13.003Z,18.68
2022-10-23T10:24:13.013Z,18.42
2022-10-23T10:25:13.052Z,18.43
2022-10-23T10:26:12.979Z,18.38
2022-10-23T10:27:13.064Z,18.45
2022-10-23T10:28:12.997Z,18.48
2022-10-23T10:29:12.974Z,18.41
2022-10-23T10:30:13.000Z,18.54
2022-10-23T10:31:12.952Z,18.49
2022-10-23T10:32:12.968Z,18.60
2022-10-23T10:33:12.941Z,18.61
2022-10-23T10:34:12.973Z,18.75
2022-10-23T10:35:12.926Z,18.67
2022-10-23T10:36:12.996Z,18.82
2022-10-23T10:37:12.902Z,18.86
2022-10-23T10:38:12.903Z,18.81
2022-10-23T10:39:12.955Z,18.58
2022-10-23T10:40:12.903Z,18.56
2022-10-23T10:41:12.904Z,18.28
2022-10-23T10:42:12.874Z,18.34
2022-10-23T10:43:13.021Z,18.33
2022-10-23T10:44:13.030Z,18.24
2022-10-23T10:45:13.809Z,18.11
2022-10-23T10:46:12.919Z,18.12
2022-10-23T10:47:14.910Z,17.96
2022-10-23T10:48:12.822Z,17.86
2022-10-23T10:49:12.840Z,17.87
2022-10-23T10:50:12.807Z,17.86
2022-10-23T10:51:12.844Z,17.81
2022-10-23T10:52:12.878Z,17.83
2022-10-23T10:53:12.826Z,17.88
2022-10-23T10:54:17.803Z,17.96
2022-10-23T10:55:12.773Z,18.12
2022-10-23T10:56:12.771Z,18.15
2022-10-23T10:57:12.769Z,18.30
2022-10-23T10:58:12.805Z,18.42
2022-10-23T10:59:12.750Z,18.60
2022-10-23T11:00:13.050Z,18.71
2022-10-23T11:01:12.896Z,18.78
2022-10-23T11:02:12.935Z,18.85
2022-10-23T11:03:12.746Z,18.78
2022-10-23T11:04:12.724Z,18.76
2022-10-23T11:05:12.702Z,18.81
2022-10-23T11:06:13.371Z,18.81
2022-10-23T11:07:12.705Z,18.85
2022-10-23T11:08:12.744Z,18.68
2022-10-23T11:09:20.437Z,18.70
2022-10-23T11:10:13.661Z,18.54
2022-10-23T11:11:12.690Z,18.56
2022-10-23T11:12:12.713Z,18.78
2022-10-23T11:13:12.655Z,18.79
2022-10-23T11:14:12.648Z,18.81
2022-10-23T11:15:12.633Z,18.85
2022-10-23T11:16:12.650Z,18.83
2022-10-23T11:17:12.626Z,18.68
2022-10-23T11:18:12.636Z,18.67
2022-10-23T11:19:14.026Z,18.60
2022-10-23T11:20:12.594Z,18.60
2022-10-23T11:21:12.727Z,18.63
2022-10-23T11:22:12.661Z,18.56
2022-10-23T11:23:12.580Z,18.56
2022-10-23T11:24:12.582Z,18.46
2022-10-23T11:25:12.555Z,18.43
2022-10-23T11:26:14.226Z,18.46
2022-10-23T11:27:12.559Z,18.39
2022-10-23T11:28:12.560Z,18.34
2022-10-23T11:29:12.621Z,18.41
2022-10-23T11:30:12.577Z,18.57
2022-10-23T11:31:12.531Z,18.61
2022-10-23T11:32:12.752Z,18.78
2022-10-23T11:33:12.500Z,18.82
2022-10-23T11:34:12.528Z,18.81
2022-10-23T11:35:12.497Z,18.78
2022-10-23T11:36:12.553Z,18.74
2022-10-23T11:37:12.478Z,18.85
2022-10-23T11:38:12.709Z,18.81
2022-10-23T11:39:12.478Z,18.54
2022-10-23T11:40:12.554Z,18.63
2022-10-23T11:41:12.500Z,18.52
2022-10-23T11:42:12.436Z,18.56
2022-10-23T11:43:12.605Z,18.54
2022-10-23T11:44:13.080Z,18.57
2022-10-23T11:45:12.486Z,18.51
2022-10-23T11:46:12.428Z,18.51
2022-10-23T11:47:12.414Z,18.48
2022-10-23T11:48:12.411Z,18.36
2022-10-23T11:50:12.527Z,18.42
2022-10-23T11:51:12.416Z,18.41
2022-10-23T11:52:12.383Z,18.36
2022-10-23T11:53:14.839Z,18.43
2022-10-23T11:54:12.418Z,18.45
2022-10-23T11:55:12.369Z,18.42
2022-10-23T11:56:12.805Z,18.45
2022-10-23T11:57:14.268Z,18.39
2022-10-23T11:58:12.349Z,18.46
2022-10-23T11:59:12.326Z,18.48
2022-10-23T12:00:12.349Z,18.43
2022-10-23T12:01:12.374Z,18.48
2022-10-23T12:02:12.441Z,18.49
2022-10-23T12:03:12.292Z,18.38
2022-10-23T12:04:12.339Z,18.30
2022-10-23T12:05:12.318Z,18.33
2022-10-23T12:06:12.379Z,18.31
2022-10-23T12:07:12.265Z,18.33
2022-10-23T12:08:12.307Z,18.30
2022-10-23T12:09:12.696Z,18.39
2022-10-23T12:10:12.272Z,18.30
2022-10-23T12:11:12.298Z,18.26
2022-10-23T12:12:12.253Z,18.20
2022-10-23T12:13:12.236Z,18.24
2022-10-23T12:15:12.221Z,18.31
2022-10-23T12:16:12.209Z,18.30
2022-10-23T12:17:12.203Z,18.30
2022-10-23T12:18:12.200Z,18.28
2022-10-23T12:19:12.592Z,18.31
2022-10-23T12:20:12.255Z,18.34
2022-10-23T12:21:12.167Z,18.23
2022-10-23T12:22:12.206Z,18.21
2022-10-23T12:23:12.214Z,18.20
2022-10-23T12:24:12.397Z,18.21
2022-10-23T12:25:12.190Z,18.05
2022-10-23T12:26:12.169Z,17.96
2022-10-23T12:27:12.129Z,17.88
2022-10-23T12:28:12.149Z,17.90
2022-10-23T12:29:12.337Z,17.87
2022-10-23T12:30:12.163Z,17.83
2022-10-23T12:31:12.171Z,17.90
2022-10-23T12:32:12.116Z,17.76
2022-10-23T12:33:12.096Z,17.53
2022-10-23T12:34:12.086Z,17.45
2022-10-23T12:35:12.065Z,17.46
2022-10-23T12:36:12.087Z,17.41
2022-10-23T12:37:12.063Z,17.32
2022-10-23T12:38:12.090Z,17.28
2022-10-23T12:39:12.136Z,17.37
2022-10-23T12:40:12.066Z,17.34
2022-10-23T12:41:12.069Z,17.28
2022-10-23T12:42:12.190Z,17.28
2022-10-23T12:43:12.035Z,17.38
2022-10-23T12:44:12.023Z,17.45
2022-10-23T12:45:12.018Z,17.41
2022-10-23T12:46:14.134Z,17.45
2022-10-23T12:47:12.200Z,17.45
2022-10-23T12:48:12.051Z,17.43
2022-10-23T12:49:11.971Z,17.52
2022-10-23T12:50:11.971Z,17.52
2022-10-23T12:51:11.968Z,17.57
2022-10-23T12:52:12.537Z,17.54
2022-10-23T12:53:12.305Z,17.54
2022-10-23T12:54:11.961Z,17.52
2022-10-23T12:55:12.212Z,17.62
2022-10-23T12:56:11.968Z,17.50
2022-10-23T12:57:11.921Z,17.54
2022-10-23T12:58:11.919Z,17.65
2022-10-23T12:59:11.925Z,17.75
2022-10-23T13:00:11.944Z,17.76
2022-10-23T13:01:11.965Z,17.81
2022-10-23T13:02:12.069Z,17.79
2022-10-23T13:03:11.874Z,17.90